Time;durP1;ratioP1;P1;durP2;ratioP2;P2;SDS_P1;SDS_P2;PMS_P1;PMS_P2;Temp;Humidity;BMP_temperature;BMP_pressure;BME280_temperature;BME280_humidity;BME280_pressure;Samples;Min_cycle;Max_cycle;Signal;HPM_P1;HPM_P2
2022/07/19 00:02:03;;;;;;;4.70;4.28;;;;;;;;;;5007692;28;20089;-43
2022/07/19 00:04:28;;;;;;;6.82;3.95;;;;;;;;;;5005074;28;20045;-43
2022/07/19 00:06:55;;;;;;;6.80;4.40;;;;;;;;;;5006815;28;20054;-43
2022/07/19 00:09:21;;;;;;;5.22;4.32;;;;;;;;;;5007107;28;20026;-43
2022/07/19 00:11:47;;;;;;;6.53;5.03;;;;;;;;;;5007694;28;20073;-42
2022/07/19 00:14:13;;;;;;;12.25;4.68;;;;;;;;;;5001438;28;20069;-43
2022/07/19 00:16:39;;;;;;;10.57;5.07;;;;;;;;;;5005644;28;20022;-41
2022/07/19 00:19:04;;;;;;;7.85;4.90;;;;;;;;;;5005744;28;20044;-44
2022/07/19 00:21:30;;;;;;;9.00;4.55;;;;;;;;;;5005867;28;20030;-42
2022/07/19 00:23:56;;;;;;;6.65;4.18;;;;;;;;;;5005231;28;20025;-42
2022/07/19 00:26:22;;;;;;;6.28;4.40;;;;;;;;;;5007096;28;20045;-43
2022/07/19 00:28:48;;;;;;;7.07;4.45;;;;;;;;;;5007802;28;20041;-44
2022/07/19 00:31:13;;;;;;;6.57;4.35;;;;;;;;;;5007980;28;20418;-43
2022/07/19 00:33:39;;;;;;;9.05;4.35;;;;;;;;;;5006336;28;20030;-47
2022/07/19 00:36:04;;;;;;;4.93;4.10;;;;;;;;;;5006344;28;20026;-44
2022/07/19 00:38:30;;;;;;;4.43;3.92;;;;;;;;;;5007844;28;20057;-42
2022/07/19 00:40:56;;;;;;;6.28;4.35;;;;;;;;;;5008752;28;20121;-43
2022/07/19 00:43:22;;;;;;;5.15;4.55;;;;;;;;;;5011382;28;20509;-43
2022/07/19 00:45:47;;;;;;;9.70;4.63;;;;;;;;;;5006215;28;20103;-43
2022/07/19 00:48:14;;;;;;;6.57;4.50;;;;;;;;;;5009189;28;20029;-45
2022/07/19 00:50:39;;;;;;;8.10;4.25;;;;;;;;;;5012200;28;20053;-43
2022/07/19 00:53:06;;;;;;;7.70;4.20;;;;;;;;;;5011698;28;20046;-43
2022/07/19 00:55:35;;;;;;;4.32;3.92;;;;;;;;;;5008926;28;20541;-44
2022/07/19 00:58:02;;;;;;;8.10;4.93;;;;;;;;;;5008962;28;20026;-43
2022/07/19 01:00:32;;;;;;;6.47;4.38;;;;;;;;;;5011648;28;20037;-43
2022/07/19 01:02:58;;;;;;;4.38;4.07;;;;;;;;;;5009617;28;20029;-43
2022/07/19 01:05:24;;;;;;;6.25;4.15;;;;;;;;;;5007107;28;20480;-42
2022/07/19 01:07:49;;;;;;;6.85;4.13;;;;;;;;;;5006738;28;20037;-44
2022/07/19 01:10:15;;;;;;;10.63;4.40;;;;;;;;;;5011336;28;20374;-43
2022/07/19 01:12:42;;;;;;;4.82;4.32;;;;;;;;;;5010252;28;20022;-44
2022/07/19 01:15:17;;;;;;;8.45;4.28;;;;;;;;;;5009361;28;20115;-43
2022/07/19 01:17:43;;;;;;;7.60;4.95;;;;;;;;;;5010104;28;20034;-43
2022/07/19 01:20:10;;;;;;;7.10;4.60;;;;;;;;;;5012222;28;20493;-43
2022/07/19 01:22:35;;;;;;;7.60;5.00;;;;;;;;;;5010517;28;20030;-43
2022/07/19 01:25:01;;;;;;;10.52;4.68;;;;;;;;;;5006758;28;20056;-43
2022/07/19 01:27:27;;;;;;;11.00;5.05;;;;;;;;;;5013936;28;20030;-42
2022/07/19 01:29:53;;;;;;;10.63;4.50;;;;;;;;;;5010770;28;20050;-42
2022/07/19 01:32:18;;;;;;;10.10;4.85;;;;;;;;;;5010542;28;20034;-42
2022/07/19 01:34:44;;;;;;;6.90;4.50;;;;;;;;;;5009142;28;20042;-42
2022/07/19 01:37:10;;;;;;;7.07;4.80;;;;;;;;;;5008585;28;20082;-43
2022/07/19 01:39:35;;;;;;;8.52;5.10;;;;;;;;;;5008513;28;20420;-43
2022/07/19 01:42:01;;;;;;;7.90;5.10;;;;;;;;;;5007985;28;20022;-43
2022/07/19 01:44:27;;;;;;;11.02;5.32;;;;;;;;;;5009071;28;20033;-44
2022/07/19 01:46:53;;;;;;;5.43;4.57;;;;;;;;;;5006956;28;20064;-43
2022/07/19 01:49:18;;;;;;;13.27;4.78;;;;;;;;;;5008924;28;20022;-42
2022/07/19 01:51:44;;;;;;;6.55;5.10;;;;;;;;;;5007600;28;20029;-42
2022/07/19 01:54:10;;;;;;;5.38;4.75;;;;;;;;;;5002582;28;20034;-43
2022/07/19 01:56:36;;;;;;;5.55;5.05;;;;;;;;;;5004668;28;20045;-43
2022/07/19 01:59:01;;;;;;;5.95;4.78;;;;;;;;;;5010292;28;20055;-43
2022/07/19 02:01:27;;;;;;;9.65;5.30;;;;;;;;;;5008703;28;20096;-43
2022/07/19 02:03:53;;;;;;;5.78;4.95;;;;;;;;;;5007007;28;20036;-42
2022/07/19 02:06:18;;;;;;;9.02;4.95;;;;;;;;;;5005698;28;20053;-42
2022/07/19 02:08:44;;;;;;;5.32;4.85;;;;;;;;;;5008327;28;20171;-42
2022/07/19 02:13:54;;;;;;;7.68;5.00;;;;;;;;;;5009304;28;20467;-43
2022/07/19 02:16:20;;;;;;;5.65;4.60;;;;;;;;;;5007574;28;20036;-43
2022/07/19 02:18:46;;;;;;;6.95;5.15;;;;;;;;;;5008532;28;20545;-43
2022/07/19 02:21:11;;;;;;;11.10;5.30;;;;;;;;;;5006711;28;20030;-43
2022/07/19 02:23:37;;;;;;;6.30;5.03;;;;;;;;;;5006665;28;20526;-43
2022/07/19 02:26:02;;;;;;;9.23;4.97;;;;;;;;;;5006639;28;20478;-43
2022/07/19 02:28:28;;;;;;;9.77;4.97;;;;;;;;;;5007756;28;20538;-43
2022/07/19 02:30:54;;;;;;;10.10;5.15;;;;;;;;;;5008757;28;20117;-46
2022/07/19 02:33:19;;;;;;;6.60;4.93;;;;;;;;;;5009596;28;20030;-44
2022/07/19 02:35:45;;;;;;;7.18;5.07;;;;;;;;;;5005081;28;20061;-45
2022/07/19 02:38:11;;;;;;;7.68;5.15;;;;;;;;;;5007743;28;20049;-44
2022/07/19 02:40:36;;;;;;;6.40;5.28;;;;;;;;;;5008115;28;20474;-43
2022/07/19 02:43:02;;;;;;;6.43;5.75;;;;;;;;;;5008454;28;20392;-42
2022/07/19 02:45:28;;;;;;;7.28;5.47;;;;;;;;;;5010201;28;20054;-46
2022/07/19 02:47:54;;;;;;;6.95;5.10;;;;;;;;;;5008540;28;20434;-45
2022/07/19 02:50:19;;;;;;;6.60;5.20;;;;;;;;;;5005046;28;20092;-47
2022/07/19 02:52:45;;;;;;;9.40;5.07;;;;;;;;;;5007321;28;20034;-44
2022/07/19 02:55:11;;;;;;;7.57;5.45;;;;;;;;;;5008310;28;20042;-44
2022/07/19 02:57:37;;;;;;;9.32;5.20;;;;;;;;;;5006301;28;20030;-42
2022/07/19 03:00:09;;;;;;;6.75;5.93;;;;;;;;;;5008237;28;20030;-43
2022/07/19 03:02:35;;;;;;;10.55;5.35;;;;;;;;;;5002447;28;20042;-44
2022/07/19 03:05:01;;;;;;;8.10;5.65;;;;;;;;;;5007176;28;20037;-43
2022/07/19 03:07:27;;;;;;;6.50;5.40;;;;;;;;;;5006824;28;20061;-47
2022/07/19 03:09:53;;;;;;;7.53;5.78;;;;;;;;;;5006957;28;20066;-42
2022/07/19 03:12:18;;;;;;;8.55;5.90;;;;;;;;;;5009388;28;20619;-42
2022/07/19 03:14:44;;;;;;;9.85;5.32;;;;;;;;;;5007773;28;20517;-44
2022/07/19 03:17:10;;;;;;;8.60;5.97;;;;;;;;;;5006146;28;20053;-44
2022/07/19 03:19:35;;;;;;;8.60;5.80;;;;;;;;;;5004116;28;20132;-44
2022/07/19 03:22:01;;;;;;;11.30;5.80;;;;;;;;;;5007817;28;20036;-45
2022/07/19 03:24:27;;;;;;;7.90;5.57;;;;;;;;;;5007543;28;20109;-44
2022/07/19 03:26:53;;;;;;;6.75;5.55;;;;;;;;;;5004211;28;20080;-42
2022/07/19 03:29:18;;;;;;;7.22;6.07;;;;;;;;;;5007619;28;20041;-43
2022/07/19 03:31:44;;;;;;;6.70;6.10;;;;;;;;;;5007478;28;20478;-42
2022/07/19 03:34:10;;;;;;;6.18;5.60;;;;;;;;;;5003282;28;20109;-42
2022/07/19 03:36:35;;;;;;;6.20;5.60;;;;;;;;;;5007206;28;20041;-44
2022/07/19 03:39:01;;;;;;;8.18;5.43;;;;;;;;;;5008338;28;20533;-42
2022/07/19 03:41:27;;;;;;;9.55;6.25;;;;;;;;;;5007856;28;20030;-42
2022/07/19 03:43:52;;;;;;;6.75;5.70;;;;;;;;;;5007211;28;20489;-43
2022/07/19 03:46:20;;;;;;;9.18;5.63;;;;;;;;;;5007200;28;20044;-43
2022/07/19 03:48:47;;;;;;;6.65;5.80;;;;;;;;;;5005960;28;20030;-47
2022/07/19 03:51:13;;;;;;;10.73;6.85;;;;;;;;;;5003935;28;20030;-45
2022/07/19 03:53:39;;;;;;;5.80;5.25;;;;;;;;;;5007437;28;20507;-42
2022/07/19 03:56:05;;;;;;;6.45;5.85;;;;;;;;;;5005257;28;21005;-41
2022/07/19 03:58:31;;;;;;;6.55;6.03;;;;;;;;;;5007531;28;20112;-46
2022/07/19 04:00:56;;;;;;;11.40;6.07;;;;;;;;;;5005262;28;20479;-42
2022/07/19 04:03:22;;;;;;;16.67;5.93;;;;;;;;;;5006499;28;20503;-42
2022/07/19 04:05:48;;;;;;;14.20;6.20;;;;;;;;;;5002003;28;20030;-43
2022/07/19 04:08:14;;;;;;;12.35;6.90;;;;;;;;;;5009228;28;20038;-44
2022/07/19 04:10:41;;;;;;;6.45;5.88;;;;;;;;;;5010471;28;20431;-42
2022/07/19 04:13:07;;;;;;;7.38;6.45;;;;;;;;;;5005634;28;20562;-42
2022/07/19 04:15:35;;;;;;;9.55;6.25;;;;;;;;;;5006742;28;20058;-42
2022/07/19 04:18:01;;;;;;;6.78;6.22;;;;;;;;;;5010754;28;20033;-42
2022/07/19 04:20:27;;;;;;;7.05;6.38;;;;;;;;;;5010194;28;20029;-42
2022/07/19 04:22:53;;;;;;;8.00;6.25;;;;;;;;;;5011803;28;20517;-43
2022/07/19 04:25:19;;;;;;;7.28;6.57;;;;;;;;;;5010172;28;20048;-42
2022/07/19 04:27:45;;;;;;;9.73;6.95;;;;;;;;;;5011261;28;20474;-43
2022/07/19 04:30:10;;;;;;;15.90;6.90;;;;;;;;;;5011694;28;20383;-42
2022/07/19 04:32:36;;;;;;;9.80;6.60;;;;;;;;;;5009224;28;20030;-42
2022/07/19 04:35:03;;;;;;;8.05;6.30;;;;;;;;;;5010543;28;20173;-43
2022/07/19 04:37:28;;;;;;;13.95;7.07;;;;;;;;;;5008633;28;20060;-43
2022/07/19 04:39:54;;;;;;;8.18;6.28;;;;;;;;;;5008978;28;20038;-45
2022/07/19 04:42:20;;;;;;;9.30;6.90;;;;;;;;;;5010708;28;20040;-43
2022/07/19 04:44:46;;;;;;;7.05;6.38;;;;;;;;;;5009369;28;20037;-44
2022/07/19 04:47:11;;;;;;;8.70;6.80;;;;;;;;;;5006591;28;20022;-43
2022/07/19 04:49:37;;;;;;;9.57;6.78;;;;;;;;;;5010834;28;20068;-45
2022/07/19 04:52:03;;;;;;;7.85;7.03;;;;;;;;;;5010458;28;20029;-44
2022/07/19 04:54:29;;;;;;;10.23;7.25;;;;;;;;;;5003739;28;20026;-42
2022/07/19 04:56:54;;;;;;;7.43;6.43;;;;;;;;;;5004084;28;20541;-45
2022/07/19 04:59:20;;;;;;;12.32;7.10;;;;;;;;;;5001117;28;20029;-43
2022/07/19 05:01:46;;;;;;;9.60;7.00;;;;;;;;;;5008261;28;20449;-43
2022/07/19 05:04:11;;;;;;;14.57;7.13;;;;;;;;;;5008465;28;20034;-43
2022/07/19 05:06:37;;;;;;;14.88;7.05;;;;;;;;;;5009244;28;20022;-42
2022/07/19 05:09:03;;;;;;;9.38;7.38;;;;;;;;;;5008341;28;20070;-43
2022/07/19 05:11:29;;;;;;;9.02;6.80;;;;;;;;;;5008548;28;20033;-43
2022/07/19 05:13:54;;;;;;;13.45;7.07;;;;;;;;;;5010249;28;20030;-42
2022/07/19 05:16:20;;;;;;;9.80;6.95;;;;;;;;;;5012442;28;20030;-46
2022/07/19 05:18:46;;;;;;;8.73;7.05;;;;;;;;;;5010721;28;20406;-42
2022/07/19 05:21:11;;;;;;;14.52;7.00;;;;;;;;;;5009636;28;20034;-42
2022/07/19 05:23:37;;;;;;;12.55;7.10;;;;;;;;;;5009548;28;20033;-44
2022/07/19 05:26:03;;;;;;;12.93;7.32;;;;;;;;;;5007638;28;20430;-42
2022/07/19 05:28:28;;;;;;;10.00;7.30;;;;;;;;;;5001911;28;20022;-41
2022/07/19 05:30:54;;;;;;;11.93;7.15;;;;;;;;;;5007407;28;20419;-42
2022/07/19 05:33:20;;;;;;;8.98;7.25;;;;;;;;;;5009353;28;20025;-45
2022/07/19 05:35:46;;;;;;;21.25;7.20;;;;;;;;;;5006146;28;20065;-44
2022/07/19 05:38:11;;;;;;;9.85;7.38;;;;;;;;;;5013622;28;20108;-43
2022/07/19 05:40:37;;;;;;;8.98;7.45;;;;;;;;;;5003855;28;20582;-42
2022/07/19 05:43:02;;;;;;;11.90;7.13;;;;;;;;;;5005688;28;20449;-42
2022/07/19 05:45:28;;;;;;;13.52;7.25;;;;;;;;;;5002751;28;20045;-42
2022/07/19 05:47:54;;;;;;;12.63;6.75;;;;;;;;;;5001832;28;20038;-43
2022/07/19 05:50:19;;;;;;;15.02;7.10;;;;;;;;;;4999880;28;20746;-45
2022/07/19 05:52:45;;;;;;;11.77;7.38;;;;;;;;;;5001432;28;20045;-42
2022/07/19 05:55:11;;;;;;;16.35;6.82;;;;;;;;;;4999200;28;20697;-43
2022/07/19 05:57:37;;;;;;;8.75;7.18;;;;;;;;;;5004137;28;20034;-42
2022/07/19 06:00:04;;;;;;;9.18;6.75;;;;;;;;;;5005824;28;20033;-41
2022/07/19 06:02:32;;;;;;;8.50;6.90;;;;;;;;;;5006472;28;20033;-42
2022/07/19 06:04:58;;;;;;;8.00;6.53;;;;;;;;;;5010624;28;20382;-43
2022/07/19 06:07:23;;;;;;;12.43;7.20;;;;;;;;;;5000397;28;20142;-42
2022/07/19 06:09:49;;;;;;;8.90;7.25;;;;;;;;;;5003514;28;20122;-44
2022/07/19 06:12:15;;;;;;;10.45;7.18;;;;;;;;;;5000317;28;20034;-42
2022/07/19 06:14:41;;;;;;;9.35;6.78;;;;;;;;;;5002088;28;20091;-42
2022/07/19 06:17:06;;;;;;;10.57;7.32;;;;;;;;;;5008075;28;20021;-44
2022/07/19 06:19:32;;;;;;;12.15;7.18;;;;;;;;;;5003245;28;20034;-42
2022/07/19 06:21:58;;;;;;;9.55;7.13;;;;;;;;;;5007533;28;20237;-43
2022/07/19 06:24:24;;;;;;;14.93;7.30;;;;;;;;;;5009194;28;20030;-41
2022/07/19 06:26:49;;;;;;;7.60;6.30;;;;;;;;;;5008696;28;20057;-42
2022/07/19 06:29:15;;;;;;;15.38;7.10;;;;;;;;;;5007568;28;20026;-41
2022/07/19 06:31:41;;;;;;;13.88;7.10;;;;;;;;;;5008442;28;20549;-42
2022/07/19 06:34:06;;;;;;;17.35;7.50;;;;;;;;;;4998210;28;20041;-42
2022/07/19 06:36:32;;;;;;;14.50;6.72;;;;;;;;;;5005347;28;20057;-41
2022/07/19 06:38:58;;;;;;;16.80;8.25;;;;;;;;;;5006716;28;20045;-42
2022/07/19 06:41:23;;;;;;;9.20;7.32;;;;;;;;;;5007576;28;20034;-42
2022/07/19 06:43:49;;;;;;;12.27;7.10;;;;;;;;;;5007652;28;20030;-42
2022/07/19 06:46:15;;;;;;;15.63;7.38;;;;;;;;;;5008805;28;20108;-42
2022/07/19 06:48:40;;;;;;;7.20;6.53;;;;;;;;;;5008688;28;20026;-40
2022/07/19 06:51:07;;;;;;;7.07;6.53;;;;;;;;;;5006368;28;20026;-45
2022/07/19 06:53:33;;;;;;;9.20;6.75;;;;;;;;;;5005818;28;20060;-42
2022/07/19 06:55:59;;;;;;;11.20;7.18;;;;;;;;;;5008770;28;20130;-41
2022/07/19 06:58:25;;;;;;;7.18;6.57;;;;;;;;;;5002504;28;20125;-42
2022/07/19 07:00:51;;;;;;;15.50;7.05;;;;;;;;;;5003840;28;20088;-42
2022/07/19 07:03:18;;;;;;;10.90;7.32;;;;;;;;;;5008303;28;20084;-47
2022/07/19 07:05:44;;;;;;;7.97;6.43;;;;;;;;;;5007771;28;20497;-42
2022/07/19 07:08:10;;;;;;;17.48;7.10;;;;;;;;;;5006521;28;20041;-42
2022/07/19 07:10:37;;;;;;;14.55;6.57;;;;;;;;;;5007485;28;20459;-42
2022/07/19 07:13:02;;;;;;;11.13;6.68;;;;;;;;;;5006404;28;20029;-42
2022/07/19 07:15:28;;;;;;;20.83;7.22;;;;;;;;;;5006564;28;20032;-44
2022/07/19 07:17:54;;;;;;;12.32;7.68;;;;;;;;;;5003264;28;20402;-42
2022/07/19 07:20:20;;;;;;;16.02;7.53;;;;;;;;;;5005727;28;20183;-43
2022/07/19 07:22:46;;;;;;;10.45;6.60;;;;;;;;;;5006548;28;20025;-42
2022/07/19 07:25:12;;;;;;;28.95;6.97;;;;;;;;;;5007792;28;20026;-42
2022/07/19 07:27:37;;;;;;;15.75;7.18;;;;;;;;;;5008218;28;20478;-42
2022/07/19 07:30:04;;;;;;;24.77;6.95;;;;;;;;;;5008371;28;20088;-42
2022/07/19 07:32:30;;;;;;;15.60;7.72;;;;;;;;;;5006703;28;20029;-42
2022/07/19 07:34:56;;;;;;;24.95;7.10;;;;;;;;;;5007712;28;20117;-42
2022/07/19 07:37:21;;;;;;;12.25;7.20;;;;;;;;;;5007383;28;20694;-42
2022/07/19 07:39:47;;;;;;;17.10;7.88;;;;;;;;;;5005262;28;20034;-42
2022/07/19 07:42:13;;;;;;;8.75;6.88;;;;;;;;;;5007004;28;20029;-44
2022/07/19 07:44:40;;;;;;;12.10;7.30;;;;;;;;;;5007058;28;20117;-42
2022/07/19 07:47:08;;;;;;;9.75;6.93;;;;;;;;;;5006994;28;20048;-44
2022/07/19 07:49:34;;;;;;;9.98;6.97;;;;;;;;;;5003237;28;20042;-42
2022/07/19 07:52:00;;;;;;;15.13;7.22;;;;;;;;;;5012045;28;20591;-40
2022/07/19 07:54:26;;;;;;;10.93;6.60;;;;;;;;;;5011283;28;20030;-42
2022/07/19 07:56:52;;;;;;;12.52;6.80;;;;;;;;;;5011545;28;20030;-45
2022/07/19 07:59:17;;;;;;;18.85;6.70;;;;;;;;;;5012909;28;20076;-47
2022/07/19 08:01:44;;;;;;;10.00;5.82;;;;;;;;;;5009663;28;20121;-42
2022/07/19 08:04:10;;;;;;;9.60;6.30;;;;;;;;;;5011628;28;20026;-42
2022/07/19 08:06:36;;;;;;;11.95;6.28;;;;;;;;;;5007248;28;20639;-42
2022/07/19 08:09:03;;;;;;;12.20;6.20;;;;;;;;;;5012214;28;20030;-42
2022/07/19 08:11:29;;;;;;;7.38;5.95;;;;;;;;;;5008323;28;20049;-45
2022/07/19 08:13:54;;;;;;;12.23;5.97;;;;;;;;;;5011393;28;20026;-50
2022/07/19 08:16:20;;;;;;;13.68;6.10;;;;;;;;;;5007115;28;20069;-42
2022/07/19 08:18:46;;;;;;;23.25;6.25;;;;;;;;;;5010658;28;20030;-42
2022/07/19 08:21:12;;;;;;;10.20;6.03;;;;;;;;;;5011217;28;20029;-43
2022/07/19 08:23:39;;;;;;;11.35;6.13;;;;;;;;;;5009702;28;20180;-44
2022/07/19 08:26:05;;;;;;;15.77;5.32;;;;;;;;;;5011812;28;20100;-42
2022/07/19 08:28:31;;;;;;;14.00;5.90;;;;;;;;;;5010961;28;20105;-41
2022/07/19 08:30:57;;;;;;;26.52;5.18;;;;;;;;;;5006175;28;20030;-44
2022/07/19 08:33:22;;;;;;;15.98;5.40;;;;;;;;;;5008177;28;20036;-45
2022/07/19 08:35:48;;;;;;;17.77;5.88;;;;;;;;;;5004829;28;20030;-44
2022/07/19 08:38:13;;;;;;;12.90;5.40;;;;;;;;;;5008272;28;20470;-43
2022/07/19 08:40:42;;;;;;;17.10;5.03;;;;;;;;;;5010771;28;20073;-43
2022/07/19 08:43:09;;;;;;;16.70;5.28;;;;;;;;;;5008778;28;20033;-42
2022/07/19 08:45:40;;;;;;;18.60;5.10;;;;;;;;;;5008315;28;22049;-43
2022/07/19 08:48:07;;;;;;;6.28;4.90;;;;;;;;;;5012774;28;20049;-44
2022/07/19 08:50:34;;;;;;;8.52;4.82;;;;;;;;;;5012825;28;20483;-46
2022/07/19 08:53:01;;;;;;;8.30;5.10;;;;;;;;;;5009421;28;20041;-43
2022/07/19 08:55:27;;;;;;;14.63;4.88;;;;;;;;;;5009771;28;20068;-42
2022/07/19 08:58:01;;;;;;;12.80;4.72;;;;;;;;;;5010764;28;20030;-42
2022/07/19 09:00:29;;;;;;;8.98;5.07;;;;;;;;;;5009163;28;20041;-42
2022/07/19 09:02:58;;;;;;;10.65;5.13;;;;;;;;;;5009706;28;20034;-42
2022/07/19 09:05:24;;;;;;;11.57;5.00;;;;;;;;;;5010434;28;20263;-45
2022/07/19 09:08:06;;;;;;;16.15;4.63;;;;;;;;;;5010033;28;20022;-42
2022/07/19 09:10:34;;;;;;;10.85;5.03;;;;;;;;;;5004998;28;20066;-42
2022/07/19 09:13:11;;;;;;;12.20;4.65;;;;;;;;;;5009953;28;20034;-41
2022/07/19 09:15:46;;;;;;;9.98;4.90;;;;;;;;;;5007326;28;20025;-42
2022/07/19 09:18:11;;;;;;;7.90;4.90;;;;;;;;;;5008971;28;20028;-42
2022/07/19 09:20:38;;;;;;;8.50;4.57;;;;;;;;;;5010473;28;20422;-42
2022/07/19 09:23:05;;;;;;;8.18;4.75;;;;;;;;;;5010908;28;20038;-42
2022/07/19 09:25:39;;;;;;;8.95;4.35;;;;;;;;;;5004963;28;20026;-46
2022/07/19 09:28:05;;;;;;;5.43;4.43;;;;;;;;;;5006325;28;20372;-42
2022/07/19 09:30:37;;;;;;;7.82;5.00;;;;;;;;;;5007149;28;20030;-42
2022/07/19 09:33:27;;;;;;;7.25;4.68;;;;;;;;;;5009326;28;20033;-42
2022/07/19 09:35:58;;;;;;;12.38;4.80;;;;;;;;;;5009067;28;20041;-42
2022/07/19 09:38:27;;;;;;;5.60;4.53;;;;;;;;;;5007841;28;20391;-45
2022/07/19 09:41:14;;;;;;;10.85;4.18;;;;;;;;;;5008522;28;20038;-43
2022/07/19 09:44:07;;;;;;;8.73;4.40;;;;;;;;;;5009246;28;20388;-47
2022/07/19 09:46:35;;;;;;;14.57;4.50;;;;;;;;;;5008018;28;20276;-44
2022/07/19 09:49:06;;;;;;;9.60;4.45;;;;;;;;;;5005025;28;20072;-50
2022/07/19 09:51:46;;;;;;;10.48;4.35;;;;;;;;;;5005739;28;20884;-42
2022/07/19 09:54:21;;;;;;;12.70;4.82;;;;;;;;;;5008199;28;20021;-43
2022/07/19 09:56:49;;;;;;;5.20;4.57;;;;;;;;;;5006939;28;20050;-45
2022/07/19 09:59:16;;;;;;;6.85;4.63;;;;;;;;;;5009981;28;20493;-47
2022/07/19 10:01:43;;;;;;;10.82;4.95;;;;;;;;;;5007856;28;20030;-43
2022/07/19 10:04:14;;;;;;;6.63;4.35;;;;;;;;;;5009275;28;20034;-45
2022/07/19 10:06:40;;;;;;;;;;;;;;;;;;5008223;28;20390;-41
2022/07/19 10:09:08;;;;;;;9.68;4.20;;;;;;;;;;5008647;28;19921;-47
2022/07/19 10:11:35;;;;;;;5.88;4.70;;;;;;;;;;5007577;28;20130;-42
2022/07/19 10:14:01;;;;;;;9.20;4.30;;;;;;;;;;5005686;28;20046;-42
2022/07/19 10:16:51;;;;;;;17.00;4.40;;;;;;;;;;5007995;28;20491;-44
2022/07/19 10:19:28;;;;;;;10.43;4.50;;;;;;;;;;5006497;28;20554;-42
2022/07/19 10:21:55;;;;;;;8.18;4.25;;;;;;;;;;5005533;28;20030;-43
2022/07/19 10:24:57;;;;;;;7.35;4.65;;;;;;;;;;5007313;28;20491;-44
2022/07/19 10:27:25;;;;;;;4.88;4.47;;;;;;;;;;4968065;28;20129;-42
2022/07/19 10:29:57;;;;;;;5.60;4.38;;;;;;;;;;4967310;28;20050;-45
2022/07/19 10:32:28;;;;;;;10.50;4.75;;;;;;;;;;4967441;28;20049;-43
2022/07/19 10:35:16;;;;;;;4.97;4.53;;;;;;;;;;4968487;28;20037;-46
2022/07/19 10:37:44;;;;;;;4.30;3.90;;;;;;;;;;4968045;28;20034;-44
2022/07/19 10:40:10;;;;;;;5.50;4.97;;;;;;;;;;4968992;28;20118;-42
2022/07/19 10:42:35;;;;;;;8.65;4.70;;;;;;;;;;4968299;28;20461;-42
2022/07/19 10:45:04;;;;;;;9.68;4.53;;;;;;;;;;4967094;28;20124;-42
2022/07/19 10:47:52;;;;;;;9.35;4.85;;;;;;;;;;4967301;28;20209;-42
2022/07/19 10:50:18;;;;;;;6.82;4.53;;;;;;;;;;4969685;28;20041;-49
2022/07/19 10:52:44;;;;;;;8.05;4.50;;;;;;;;;;4967540;28;20061;-42
2022/07/19 10:55:25;;;;;;;11.98;5.60;;;;;;;;;;4967837;28;20158;-43
2022/07/19 10:58:05;;;;;;;9.00;5.30;;;;;;;;;;4968779;28;20035;-46
2022/07/19 11:00:40;;;;;;;12.88;5.45;;;;;;;;;;4965134;28;20069;-41
2022/07/19 11:03:21;;;;;;;10.52;5.75;;;;;;;;;;4990403;28;20044;-42
2022/07/19 11:05:53;;;;;;;8.45;4.68;;;;;;;;;;5006409;28;20050;-42
2022/07/19 11:08:38;;;;;;;15.73;4.35;;;;;;;;;;5008072;28;20121;-45
2022/07/19 11:11:12;;;;;;;9.15;4.82;;;;;;;;;;5004378;28;20073;-44
2022/07/19 11:13:42;;;;;;;8.68;4.93;;;;;;;;;;5007014;28;20403;-44
2022/07/19 11:16:08;;;;;;;6.50;4.47;;;;;;;;;;5006967;28;20427;-43
2022/07/19 11:18:34;;;;;;;5.22;4.05;;;;;;;;;;5008667;28;20117;-42
2022/07/19 11:21:01;;;;;;;24.00;4.85;;;;;;;;;;5008178;28;20026;-45
2022/07/19 11:23:31;;;;;;;6.30;5.18;;;;;;;;;;5007677;28;20065;-42
2022/07/19 11:26:17;;;;;;;10.82;5.00;;;;;;;;;;5010214;28;20021;-43
2022/07/19 11:28:45;;;;;;;8.05;4.72;;;;;;;;;;5008324;28;20187;-43
2022/07/19 11:31:15;;;;;;;5.53;4.75;;;;;;;;;;5007806;28;20037;-45
2022/07/19 11:33:42;;;;;;;12.13;5.05;;;;;;;;;;5007067;28;20026;-43
2022/07/19 11:36:09;;;;;;;8.75;5.00;;;;;;;;;;5011039;28;20038;-43
2022/07/19 11:38:45;;;;;;;8.65;5.03;;;;;;;;;;5009579;28;20502;-42
2022/07/19 11:41:18;;;;;;;9.43;4.97;;;;;;;;;;5008213;28;20034;-46
2022/07/19 11:44:02;;;;;;;5.43;4.53;;;;;;;;;;5004183;28;20131;-42
2022/07/19 11:46:42;;;;;;;8.20;4.97;;;;;;;;;;5007358;28;20036;-43
2022/07/19 11:49:10;;;;;;;10.80;5.00;;;;;;;;;;5004564;28;20081;-43
2022/07/19 11:51:37;;;;;;;8.88;4.68;;;;;;;;;;5006448;28;20112;-42
2022/07/19 11:54:04;;;;;;;5.65;5.07;;;;;;;;;;5010301;28;20022;-42
2022/07/19 11:56:32;;;;;;;10.30;4.90;;;;;;;;;;5004885;28;20044;-42
2022/07/19 11:59:00;;;;;;;6.25;4.70;;;;;;;;;;5009838;28;20398;-42
2022/07/19 12:01:31;;;;;;;14.40;4.75;;;;;;;;;;5008934;28;20034;-42
2022/07/19 12:04:01;;;;;;;6.65;5.15;;;;;;;;;;5009304;28;20056;-45
2022/07/19 12:06:44;;;;;;;10.50;4.95;;;;;;;;;;5004800;28;20038;-43
2022/07/19 12:09:12;;;;;;;12.50;5.35;;;;;;;;;;5008563;28;20040;-44
2022/07/19 12:11:49;;;;;;;8.98;4.95;;;;;;;;;;5010634;28;20029;-45
2022/07/19 12:14:25;;;;;;;10.07;4.78;;;;;;;;;;5008385;28;20658;-43
2022/07/19 12:17:07;;;;;;;8.75;4.95;;;;;;;;;;5008377;28;20076;-44
2022/07/19 12:19:33;;;;;;;10.32;4.72;;;;;;;;;;5009928;28;20038;-42
2022/07/19 12:21:58;;;;;;;7.88;4.25;;;;;;;;;;5007769;28;20615;-42
2022/07/19 12:24:26;;;;;;;5.45;4.43;;;;;;;;;;5007731;28;20033;-42
2022/07/19 12:26:53;;;;;;;9.20;5.05;;;;;;;;;;5004271;28;20073;-42
2022/07/19 12:29:40;;;;;;;12.02;4.57;;;;;;;;;;5009264;28;20032;-47
2022/07/19 12:32:12;;;;;;;17.52;4.75;;;;;;;;;;5007055;28;20037;-43
2022/07/19 12:34:50;;;;;;;7.45;4.50;;;;;;;;;;5004501;28;20451;-47
2022/07/19 12:37:23;;;;;;;8.25;4.35;;;;;;;;;;5009623;28;20148;-47
2022/07/19 12:40:22;;;;;;;14.43;4.80;;;;;;;;;;5012412;28;20026;-44
2022/07/19 12:42:59;;;;;;;13.40;4.65;;;;;;;;;;5008865;28;20029;-44
2022/07/19 12:45:27;;;;;;;9.07;5.07;;;;;;;;;;5008879;28;20033;-42
2022/07/19 12:47:54;;;;;;;11.07;4.68;;;;;;;;;;5009525;28;20045;-42
2022/07/19 12:50:28;;;;;;;10.15;5.13;;;;;;;;;;5009544;28;20034;-42
2022/07/19 12:52:57;;;;;;;8.82;4.55;;;;;;;;;;5007717;28;20030;-42
2022/07/19 12:55:25;;;;;;;12.63;5.35;;;;;;;;;;5008331;28;20482;-44
2022/07/19 12:57:52;;;;;;;8.55;5.10;;;;;;;;;;5009535;28;20045;-42
2022/07/19 13:00:20;;;;;;;6.47;4.72;;;;;;;;;;5015420;28;20030;-42
2022/07/19 13:02:47;;;;;;;5.57;4.55;;;;;;;;;;5011853;28;20034;-42
2022/07/19 13:05:13;;;;;;;12.88;4.53;;;;;;;;;;5011512;28;20025;-44
2022/07/19 13:07:39;;;;;;;7.97;4.90;;;;;;;;;;5008627;28;20038;-42
2022/07/19 13:10:06;;;;;;;10.25;4.68;;;;;;;;;;5014463;28;20025;-43
2022/07/19 13:12:31;;;;;;;5.72;4.82;;;;;;;;;;5005809;28;20033;-43
2022/07/19 13:14:57;;;;;;;6.30;4.95;;;;;;;;;;5009985;28;20375;-44
2022/07/19 13:17:23;;;;;;;7.72;4.88;;;;;;;;;;5013812;28;20025;-44
2022/07/19 13:19:49;;;;;;;7.18;5.20;;;;;;;;;;5008635;28;20022;-43
2022/07/19 13:22:15;;;;;;;8.00;4.75;;;;;;;;;;5012961;28;20156;-42
2022/07/19 13:24:40;;;;;;;9.68;5.43;;;;;;;;;;5008856;28;20026;-41
2022/07/19 13:27:07;;;;;;;7.72;4.93;;;;;;;;;;5008205;28;20108;-48
2022/07/19 13:29:33;;;;;;;8.13;4.93;;;;;;;;;;5009533;28;20060;-45
2022/07/19 13:32:00;;;;;;;8.73;5.28;;;;;;;;;;5011379;28;20499;-43
2022/07/19 13:34:26;;;;;;;8.65;5.00;;;;;;;;;;5007800;28;20368;-45
2022/07/19 13:36:51;;;;;;;12.52;5.18;;;;;;;;;;5009219;28;20033;-43
2022/07/19 13:39:17;;;;;;;5.95;4.90;;;;;;;;;;5007669;28;20029;-43
2022/07/19 13:41:43;;;;;;;10.60;4.90;;;;;;;;;;5005953;28;20038;-42
2022/07/19 13:44:09;;;;;;;9.05;4.95;;;;;;;;;;5008774;28;20061;-42
2022/07/19 13:46:35;;;;;;;16.42;4.90;;;;;;;;;;5013634;28;20037;-43
2022/07/19 13:49:01;;;;;;;9.57;4.90;;;;;;;;;;5009525;28;20121;-45
2022/07/19 13:51:27;;;;;;;8.25;5.15;;;;;;;;;;5008250;28;20100;-43
2022/07/19 13:53:53;;;;;;;8.27;4.85;;;;;;;;;;5011266;28;20537;-42
2022/07/19 13:56:20;;;;;;;6.15;5.30;;;;;;;;;;5009972;28;20041;-42
2022/07/19 13:58:46;;;;;;;7.47;4.88;;;;;;;;;;5005133;28;20502;-42
2022/07/19 14:01:12;;;;;;;19.42;4.85;;;;;;;;;;5011190;28;20041;-42
2022/07/19 14:03:39;;;;;;;5.32;4.93;;;;;;;;;;5011748;28;20058;-44
2022/07/19 14:06:06;;;;;;;7.82;4.75;;;;;;;;;;5010414;28;20056;-42
2022/07/19 14:08:31;;;;;;;6.82;5.35;;;;;;;;;;5010032;28;20030;-42
2022/07/19 14:11:01;;;;;;;7.68;4.95;;;;;;;;;;5006241;28;20033;-42
2022/07/19 14:13:28;;;;;;;7.45;5.03;;;;;;;;;;5013882;28;20032;-44
2022/07/19 14:15:53;;;;;;;9.52;5.20;;;;;;;;;;5011908;28;20077;-42
2022/07/19 14:18:19;;;;;;;10.48;7.28;;;;;;;;;;5005692;28;20049;-43
2022/07/19 14:20:45;;;;;;;11.90;6.90;;;;;;;;;;5010725;28;20033;-44
2022/07/19 14:23:12;;;;;;;7.78;5.60;;;;;;;;;;5007903;28;20027;-43
2022/07/19 14:25:39;;;;;;;6.35;5.72;;;;;;;;;;5008959;28;20470;-47
2022/07/19 14:28:05;;;;;;;6.32;5.30;;;;;;;;;;5011852;28;20108;-42
2022/07/19 14:30:30;;;;;;;5.93;5.32;;;;;;;;;;5008580;28;20066;-46
2022/07/19 14:32:56;;;;;;;5.20;4.70;;;;;;;;;;5005892;28;20375;-42
2022/07/19 14:35:22;;;;;;;8.02;5.03;;;;;;;;;;5008125;28;20030;-42
2022/07/19 14:37:48;;;;;;;14.82;5.65;;;;;;;;;;5009504;28;20403;-46
2022/07/19 14:40:14;;;;;;;11.32;5.05;;;;;;;;;;5009649;28;20033;-42
2022/07/19 14:42:40;;;;;;;9.57;5.60;;;;;;;;;;5008020;28;20025;-45
2022/07/19 14:45:07;;;;;;;5.45;4.63;;;;;;;;;;5009220;28;20478;-47